sensor_id;sensor_type;location;lat;lon;timestamp;P1;durP1;ratioP1;P2;durP2;ratioP2
39050;SDS011;24805;55.852;37.644;2023-02-01T00:02:58;13.18;;;7.93;;
39050;SDS011;24805;55.852;37.644;2023-02-01T00:08:00;13.20;;;7.63;;
39050;SDS011;24805;55.852;37.644;2023-02-01T00:13:02;13.45;;;7.65;;
39050;SDS011;24805;55.852;37.644;2023-02-01T00:18:04;17.02;;;9.25;;
39050;SDS011;24805;55.852;37.644;2023-02-01T00:23:06;16.55;;;9.35;;
39050;SDS011;24805;55.852;37.644;2023-02-01T00:28:10;17.50;;;9.48;;
39050;SDS011;24805;55.852;37.644;2023-02-01T00:33:14;18.75;;;10.13;;
39050;SDS011;24805;55.852;37.644;2023-02-01T00:38:18;17.80;;;9.90;;
39050;SDS011;24805;55.852;37.644;2023-02-01T00:43:20;17.98;;;9.10;;
39050;SDS011;24805;55.852;37.644;2023-02-01T00:48:24;15.75;;;8.57;;
39050;SDS011;24805;55.852;37.644;2023-02-01T00:53:27;14.00;;;8.23;;
39050;SDS011;24805;55.852;37.644;2023-02-01T00:58:29;14.90;;;8.07;;
39050;SDS011;24805;55.852;37.644;2023-02-01T01:03:32;13.85;;;7.75;;
39050;SDS011;24805;55.852;37.644;2023-02-01T01:08:36;13.82;;;8.55;;
39050;SDS011;24805;55.852;37.644;2023-02-01T01:13:39;14.02;;;7.07;;
39050;SDS011;24805;55.852;37.644;2023-02-01T01:18:42;13.85;;;7.38;;
39050;SDS011;24805;55.852;37.644;2023-02-01T01:23:44;13.60;;;7.28;;
39050;SDS011;24805;55.852;37.644;2023-02-01T01:28:47;15.68;;;7.82;;
39050;SDS011;24805;55.852;37.644;2023-02-01T01:33:50;14.23;;;7.88;;
39050;SDS011;24805;55.852;37.644;2023-02-01T01:38:54;14.43;;;7.50;;
39050;SDS011;24805;55.852;37.644;2023-02-01T01:43:57;14.52;;;7.75;;
39050;SDS011;24805;55.852;37.644;2023-02-01T01:49:09;13.98;;;7.85;;
39050;SDS011;24805;55.852;37.644;2023-02-01T01:54:28;14.95;;;7.90;;
39050;SDS011;24805;55.852;37.644;2023-02-01T01:59:34;14.38;;;7.75;;
39050;SDS011;24805;55.852;37.644;2023-02-01T02:04:40;10.10;;;6.10;;
39050;SDS011;24805;55.852;37.644;2023-02-01T02:09:42;12.63;;;7.30;;
39050;SDS011;24805;55.852;37.644;2023-02-01T02:15:00;12.85;;;6.88;;
39050;SDS011;24805;55.852;37.644;2023-02-01T02:47:33;11.23;;;6.68;;
39050;SDS011;24805;55.852;37.644;2023-02-01T02:52:37;11.97;;;6.93;;
39050;SDS011;24805;55.852;37.644;2023-02-01T02:58:04;11.20;;;7.28;;
39050;SDS011;24805;55.852;37.644;2023-02-01T03:03:26;12.65;;;6.93;;
39050;SDS011;24805;55.852;37.644;2023-02-01T03:08:48;12.85;;;7.20;;
39050;SDS011;24805;55.852;37.644;2023-02-01T03:13:57;14.68;;;7.70;;
39050;SDS011;24805;55.852;37.644;2023-02-01T03:19:22;14.90;;;7.55;;
39050;SDS011;24805;55.852;37.644;2023-02-01T03:24:34;13.88;;;8.32;;
39050;SDS011;24805;55.852;37.644;2023-02-01T03:29:51;12.07;;;6.97;;
39050;SDS011;24805;55.852;37.644;2023-02-01T03:35:12;13.52;;;7.65;;
39050;SDS011;24805;55.852;37.644;2023-02-01T03:40:15;13.15;;;7.25;;
39050;SDS011;24805;55.852;37.644;2023-02-01T03:45:26;14.90;;;7.80;;
39050;SDS011;24805;55.852;37.644;2023-02-01T03:50:33;12.18;;;7.18;;
39050;SDS011;24805;55.852;37.644;2023-02-01T03:55:40;13.35;;;7.85;;
39050;SDS011;24805;55.852;37.644;2023-02-01T04:00:44;12.15;;;7.35;;
39050;SDS011;24805;55.852;37.644;2023-02-01T04:05:51;14.65;;;8.05;;
39050;SDS011;24805;55.852;37.644;2023-02-01T04:10:57;15.18;;;8.18;;
39050;SDS011;24805;55.852;37.644;2023-02-01T04:15:59;16.17;;;8.43;;
39050;SDS011;24805;55.852;37.644;2023-02-01T04:21:02;14.27;;;8.23;;
39050;SDS011;24805;55.852;37.644;2023-02-01T04:26:04;13.48;;;8.10;;
39050;SDS011;24805;55.852;37.644;2023-02-01T04:31:07;18.42;;;8.80;;
39050;SDS011;24805;55.852;37.644;2023-02-01T04:36:09;14.02;;;7.63;;
39050;SDS011;24805;55.852;37.644;2023-02-01T04:41:11;13.20;;;7.68;;
39050;SDS011;24805;55.852;37.644;2023-02-01T04:46:13;14.15;;;8.80;;
39050;SDS011;24805;55.852;37.644;2023-02-01T04:51:16;18.45;;;9.27;;
39050;SDS011;24805;55.852;37.644;2023-02-01T04:56:19;14.98;;;8.80;;
39050;SDS011;24805;55.852;37.644;2023-02-01T05:01:23;15.50;;;8.43;;
39050;SDS011;24805;55.852;37.644;2023-02-01T05:06:26;14.68;;;8.07;;
39050;SDS011;24805;55.852;37.644;2023-02-01T05:11:28;14.38;;;7.72;;
39050;SDS011;24805;55.852;37.644;2023-02-01T05:16:48;17.13;;;8.57;;
39050;SDS011;24805;55.852;37.644;2023-02-01T05:21:50;15.43;;;9.07;;
39050;SDS011;24805;55.852;37.644;2023-02-01T05:26:54;15.77;;;8.90;;
39050;SDS011;24805;55.852;37.644;2023-02-01T05:31:56;15.25;;;9.25;;
39050;SDS011;24805;55.852;37.644;2023-02-01T05:37:05;16.67;;;8.77;;
39050;SDS011;24805;55.852;37.644;2023-02-01T05:42:07;19.15;;;10.27;;
39050;SDS011;24805;55.852;37.644;2023-02-01T05:47:10;18.98;;;10.18;;
39050;SDS011;24805;55.852;37.644;2023-02-01T05:52:12;18.02;;;10.02;;
39050;SDS011;24805;55.852;37.644;2023-02-01T05:57:14;19.65;;;9.88;;
39050;SDS011;24805;55.852;37.644;2023-02-01T06:02:16;18.13;;;10.15;;
39050;SDS011;24805;55.852;37.644;2023-02-01T06:07:18;19.40;;;10.93;;
39050;SDS011;24805;55.852;37.644;2023-02-01T06:12:21;20.27;;;10.43;;
39050;SDS011;24805;55.852;37.644;2023-02-01T06:17:23;19.75;;;10.60;;
39050;SDS011;24805;55.852;37.644;2023-02-01T06:22:25;16.70;;;10.00;;
39050;SDS011;24805;55.852;37.644;2023-02-01T06:27:27;22.25;;;9.98;;
39050;SDS011;24805;55.852;37.644;2023-02-01T06:32:30;20.00;;;9.98;;
39050;SDS011;24805;55.852;37.644;2023-02-01T06:37:32;23.70;;;12.38;;
39050;SDS011;24805;55.852;37.644;2023-02-01T06:42:35;20.58;;;10.90;;
39050;SDS011;24805;55.852;37.644;2023-02-01T06:47:37;20.33;;;11.13;;
39050;SDS011;24805;55.852;37.644;2023-02-01T06:52:39;21.77;;;10.93;;
39050;SDS011;24805;55.852;37.644;2023-02-01T06:57:42;21.08;;;10.90;;
39050;SDS011;24805;55.852;37.644;2023-02-01T07:02:44;21.88;;;12.05;;
39050;SDS011;24805;55.852;37.644;2023-02-01T07:07:46;26.08;;;10.55;;
39050;SDS011;24805;55.852;37.644;2023-02-01T07:12:48;29.00;;;14.60;;
39050;SDS011;24805;55.852;37.644;2023-02-01T07:17:53;23.45;;;12.13;;
39050;SDS011;24805;55.852;37.644;2023-02-01T07:22:56;32.78;;;14.68;;
39050;SDS011;24805;55.852;37.644;2023-02-01T07:27:59;31.98;;;14.60;;
39050;SDS011;24805;55.852;37.644;2023-02-01T07:33:01;31.17;;;15.48;;
39050;SDS011;24805;55.852;37.644;2023-02-01T07:38:03;29.75;;;14.75;;
39050;SDS011;24805;55.852;37.644;2023-02-01T07:43:05;28.50;;;13.63;;
39050;SDS011;24805;55.852;37.644;2023-02-01T07:48:09;26.42;;;13.07;;
39050;SDS011;24805;55.852;37.644;2023-02-01T07:53:11;26.50;;;13.50;;
39050;SDS011;24805;55.852;37.644;2023-02-01T07:58:13;22.33;;;12.07;;
39050;SDS011;24805;55.852;37.644;2023-02-01T08:03:15;25.70;;;12.75;;
39050;SDS011;24805;55.852;37.644;2023-02-01T08:08:18;25.20;;;11.55;;
39050;SDS011;24805;55.852;37.644;2023-02-01T08:13:20;24.23;;;12.63;;
39050;SDS011;24805;55.852;37.644;2023-02-01T08:18:22;29.05;;;12.55;;
39050;SDS011;24805;55.852;37.644;2023-02-01T08:23:24;25.75;;;12.82;;
39050;SDS011;24805;55.852;37.644;2023-02-01T08:28:26;27.38;;;14.23;;
39050;SDS011;24805;55.852;37.644;2023-02-01T08:33:28;26.42;;;12.77;;
39050;SDS011;24805;55.852;37.644;2023-02-01T08:38:31;28.27;;;11.43;;
39050;SDS011;24805;55.852;37.644;2023-02-01T08:43:33;24.65;;;13.63;;
39050;SDS011;24805;55.852;37.644;2023-02-01T08:48:35;27.55;;;13.65;;
39050;SDS011;24805;55.852;37.644;2023-02-01T08:53:38;23.95;;;13.45;;
39050;SDS011;24805;55.852;37.644;2023-02-01T08:58:44;25.50;;;13.82;;
39050;SDS011;24805;55.852;37.644;2023-02-01T09:03:46;31.98;;;14.82;;
39050;SDS011;24805;55.852;37.644;2023-02-01T09:08:49;28.90;;;15.27;;
39050;SDS011;24805;55.852;37.644;2023-02-01T09:13:51;25.38;;;12.98;;
39050;SDS011;24805;55.852;37.644;2023-02-01T09:18:53;25.65;;;15.00;;
39050;SDS011;24805;55.852;37.644;2023-02-01T09:24:15;29.00;;;15.00;;
39050;SDS011;24805;55.852;37.644;2023-02-01T09:29:17;32.60;;;16.70;;
39050;SDS011;24805;55.852;37.644;2023-02-01T09:34:19;31.10;;;16.35;;
39050;SDS011;24805;55.852;37.644;2023-02-01T09:39:22;32.97;;;16.77;;
39050;SDS011;24805;55.852;37.644;2023-02-01T09:50:08;30.65;;;15.70;;
39050;SDS011;24805;55.852;37.644;2023-02-01T09:55:30;25.50;;;14.60;;
39050;SDS011;24805;55.852;37.644;2023-02-01T10:00:40;25.75;;;13.45;;
39050;SDS011;24805;55.852;37.644;2023-02-01T10:11:19;23.92;;;12.73;;
39050;SDS011;24805;55.852;37.644;2023-02-01T10:16:38;22.83;;;10.80;;
39050;SDS011;24805;55.852;37.644;2023-02-01T10:21:59;25.58;;;13.70;;
39050;SDS011;24805;55.852;37.644;2023-02-01T10:32:16;21.80;;;13.02;;
39050;SDS011;24805;55.852;37.644;2023-02-01T10:37:32;24.42;;;13.77;;
39050;SDS011;24805;55.852;37.644;2023-02-01T10:42:35;25.17;;;14.43;;
39050;SDS011;24805;55.852;37.644;2023-02-01T10:47:37;26.40;;;14.73;;
39050;SDS011;24805;55.852;37.644;2023-02-01T10:52:41;27.98;;;15.25;;
39050;SDS011;24805;55.852;37.644;2023-02-01T10:57:55;26.58;;;14.90;;
39050;SDS011;24805;55.852;37.644;2023-02-01T11:02:58;25.13;;;14.45;;
39050;SDS011;24805;55.852;37.644;2023-02-01T11:08:00;23.95;;;13.65;;
39050;SDS011;24805;55.852;37.644;2023-02-01T11:13:04;31.85;;;17.45;;
39050;SDS011;24805;55.852;37.644;2023-02-01T11:18:20;28.05;;;15.38;;
39050;SDS011;24805;55.852;37.644;2023-02-01T11:23:28;33.63;;;18.48;;
39050;SDS011;24805;55.852;37.644;2023-02-01T11:28:33;27.58;;;16.17;;
39050;SDS011;24805;55.852;37.644;2023-02-01T11:33:45;35.05;;;18.40;;
39050;SDS011;24805;55.852;37.644;2023-02-01T11:44:37;31.95;;;17.10;;
39050;SDS011;24805;55.852;37.644;2023-02-01T11:49:40;32.17;;;17.83;;
39050;SDS011;24805;55.852;37.644;2023-02-01T12:10:41;27.17;;;14.32;;
39050;SDS011;24805;55.852;37.644;2023-02-01T12:27:01;28.73;;;14.65;;
39050;SDS011;24805;55.852;37.644;2023-02-01T12:42:52;31.23;;;16.42;;
39050;SDS011;24805;55.852;37.644;2023-02-01T12:48:05;27.13;;;15.27;;
39050;SDS011;24805;55.852;37.644;2023-02-01T12:53:35;27.50;;;15.75;;
39050;SDS011;24805;55.852;37.644;2023-02-01T12:58:49;24.33;;;12.80;;
39050;SDS011;24805;55.852;37.644;2023-02-01T13:03:59;24.55;;;14.02;;
39050;SDS011;24805;55.852;37.644;2023-02-01T13:09:32;22.60;;;13.40;;
39050;SDS011;24805;55.852;37.644;2023-02-01T13:14:54;20.55;;;10.40;;
39050;SDS011;24805;55.852;37.644;2023-02-01T13:25:38;20.92;;;11.60;;
39050;SDS011;24805;55.852;37.644;2023-02-01T13:42:02;20.50;;;10.20;;
39050;SDS011;24805;55.852;37.644;2023-02-01T13:52:28;17.60;;;9.68;;
39050;SDS011;24805;55.852;37.644;2023-02-01T13:57:37;15.25;;;7.22;;
39050;SDS011;24805;55.852;37.644;2023-02-01T14:19:18;15.48;;;7.85;;
39050;SDS011;24805;55.852;37.644;2023-02-01T14:24:02;16.80;;;7.93;;
39050;SDS011;24805;55.852;37.644;2023-02-01T14:34:24;15.93;;;8.20;;
39050;SDS011;24805;55.852;37.644;2023-02-01T14:39:48;15.20;;;8.13;;
39050;SDS011;24805;55.852;37.644;2023-02-01T14:45:47;16.70;;;9.05;;
39050;SDS011;24805;55.852;37.644;2023-02-01T14:50:43;19.25;;;10.48;;
39050;SDS011;24805;55.852;37.644;2023-02-01T15:01:26;21.65;;;10.38;;
39050;SDS011;24805;55.852;37.644;2023-02-01T15:06:44;23.98;;;12.07;;
39050;SDS011;24805;55.852;37.644;2023-02-01T15:11:58;21.75;;;9.82;;
39050;SDS011;24805;55.852;37.644;2023-02-01T15:17:16;17.23;;;10.18;;
39050;SDS011;24805;55.852;37.644;2023-02-01T15:22:24;22.10;;;10.30;;
39050;SDS011;24805;55.852;37.644;2023-02-01T15:27:27;20.05;;;10.30;;
39050;SDS011;24805;55.852;37.644;2023-02-01T15:32:34;17.90;;;8.80;;
39050;SDS011;24805;55.852;37.644;2023-02-01T15:37:41;15.38;;;7.85;;
39050;SDS011;24805;55.852;37.644;2023-02-01T15:42:51;20.92;;;10.15;;
39050;SDS011;24805;55.852;37.644;2023-02-01T15:47:56;20.05;;;10.13;;
39050;SDS011;24805;55.852;37.644;2023-02-01T15:52:59;20.02;;;11.07;;
39050;SDS011;24805;55.852;37.644;2023-02-01T15:58:05;20.73;;;11.77;;
39050;SDS011;24805;55.852;37.644;2023-02-01T16:03:23;23.70;;;11.32;;
39050;SDS011;24805;55.852;37.644;2023-02-01T16:08:28;22.10;;;11.35;;
39050;SDS011;24805;55.852;37.644;2023-02-01T16:13:33;23.65;;;12.02;;
39050;SDS011;24805;55.852;37.644;2023-02-01T16:18:36;19.70;;;11.32;;
39050;SDS011;24805;55.852;37.644;2023-02-01T16:23:38;21.92;;;10.70;;
39050;SDS011;24805;55.852;37.644;2023-02-01T16:28:40;24.60;;;12.52;;
39050;SDS011;24805;55.852;37.644;2023-02-01T16:33:42;23.15;;;12.13;;
39050;SDS011;24805;55.852;37.644;2023-02-01T16:38:44;22.00;;;11.43;;
39050;SDS011;24805;55.852;37.644;2023-02-01T16:43:52;21.88;;;11.98;;
39050;SDS011;24805;55.852;37.644;2023-02-01T16:48:56;23.25;;;11.63;;
39050;SDS011;24805;55.852;37.644;2023-02-01T16:54:00;22.02;;;11.00;;
39050;SDS011;24805;55.852;37.644;2023-02-01T16:59:03;23.15;;;12.27;;
39050;SDS011;24805;55.852;37.644;2023-02-01T17:04:05;23.15;;;12.63;;
39050;SDS011;24805;55.852;37.644;2023-02-01T17:09:08;23.17;;;12.63;;
39050;SDS011;24805;55.852;37.644;2023-02-01T17:14:19;22.75;;;13.30;;
39050;SDS011;24805;55.852;37.644;2023-02-01T17:19:23;22.65;;;12.60;;
39050;SDS011;24805;55.852;37.644;2023-02-01T17:24:27;19.88;;;10.35;;
39050;SDS011;24805;55.852;37.644;2023-02-01T17:29:48;21.75;;;11.93;;
39050;SDS011;24805;55.852;37.644;2023-02-01T17:34:50;25.00;;;13.07;;
39050;SDS011;24805;55.852;37.644;2023-02-01T17:39:52;18.63;;;9.88;;
39050;SDS011;24805;55.852;37.644;2023-02-01T17:45:10;22.40;;;12.40;;
39050;SDS011;24805;55.852;37.644;2023-02-01T17:50:12;22.15;;;12.30;;
39050;SDS011;24805;55.852;37.644;2023-02-01T17:55:15;24.23;;;12.75;;
39050;SDS011;24805;55.852;37.644;2023-02-01T18:00:20;24.00;;;12.27;;
39050;SDS011;24805;55.852;37.644;2023-02-01T18:05:25;25.15;;;13.38;;
39050;SDS011;24805;55.852;37.644;2023-02-01T18:10:30;24.50;;;12.20;;
39050;SDS011;24805;55.852;37.644;2023-02-01T18:15:32;21.75;;;11.32;;
39050;SDS011;24805;55.852;37.644;2023-02-01T18:20:34;21.05;;;9.32;;
39050;SDS011;24805;55.852;37.644;2023-02-01T18:25:36;18.92;;;10.02;;
39050;SDS011;24805;55.852;37.644;2023-02-01T18:30:39;20.95;;;11.07;;
39050;SDS011;24805;55.852;37.644;2023-02-01T18:35:42;19.98;;;10.18;;
39050;SDS011;24805;55.852;37.644;2023-02-01T18:40:47;21.02;;;10.85;;
39050;SDS011;24805;55.852;37.644;2023-02-01T18:45:52;17.20;;;9.13;;
39050;SDS011;24805;55.852;37.644;2023-02-01T18:50:55;15.57;;;9.15;;
39050;SDS011;24805;55.852;37.644;2023-02-01T18:55:58;17.75;;;9.10;;
39050;SDS011;24805;55.852;37.644;2023-02-01T19:01:05;16.13;;;9.00;;
39050;SDS011;24805;55.852;37.644;2023-02-01T19:06:14;17.17;;;9.25;;
39050;SDS011;24805;55.852;37.644;2023-02-01T19:11:17;15.68;;;8.52;;
39050;SDS011;24805;55.852;37.644;2023-02-01T19:16:19;17.02;;;8.60;;
39050;SDS011;24805;55.852;37.644;2023-02-01T19:21:21;16.02;;;9.10;;
39050;SDS011;24805;55.852;37.644;2023-02-01T19:26:23;15.13;;;8.25;;
39050;SDS011;24805;55.852;37.644;2023-02-01T19:31:25;15.15;;;9.05;;
39050;SDS011;24805;55.852;37.644;2023-02-01T19:36:27;15.10;;;8.10;;
39050;SDS011;24805;55.852;37.644;2023-02-01T19:41:29;14.70;;;8.23;;
39050;SDS011;24805;55.852;37.644;2023-02-01T19:46:32;27.60;;;15.20;;
39050;SDS011;24805;55.852;37.644;2023-02-01T19:51:34;19.88;;;10.38;;
39050;SDS011;24805;55.852;37.644;2023-02-01T19:56:36;21.13;;;12.02;;
39050;SDS011;24805;55.852;37.644;2023-02-01T20:01:39;20.38;;;10.15;;
39050;SDS011;24805;55.852;37.644;2023-02-01T20:06:42;20.95;;;12.18;;
39050;SDS011;24805;55.852;37.644;2023-02-01T20:11:51;23.40;;;10.38;;
39050;SDS011;24805;55.852;37.644;2023-02-01T20:16:55;21.58;;;11.73;;
39050;SDS011;24805;55.852;37.644;2023-02-01T20:21:58;32.95;;;15.05;;
39050;SDS011;24805;55.852;37.644;2023-02-01T20:27:00;27.90;;;13.70;;
39050;SDS011;24805;55.852;37.644;2023-02-01T20:32:02;24.55;;;14.13;;
39050;SDS011;24805;55.852;37.644;2023-02-01T20:37:05;28.35;;;14.90;;
39050;SDS011;24805;55.852;37.644;2023-02-01T20:42:07;26.80;;;15.20;;
39050;SDS011;24805;55.852;37.644;2023-02-01T20:47:09;27.42;;;14.20;;
39050;SDS011;24805;55.852;37.644;2023-02-01T20:52:12;27.65;;;14.40;;
39050;SDS011;24805;55.852;37.644;2023-02-01T20:57:14;25.80;;;13.65;;
39050;SDS011;24805;55.852;37.644;2023-02-01T21:02:16;28.92;;;15.10;;
39050;SDS011;24805;55.852;37.644;2023-02-01T21:07:19;30.13;;;16.52;;
39050;SDS011;24805;55.852;37.644;2023-02-01T21:12:21;28.13;;;15.45;;
39050;SDS011;24805;55.852;37.644;2023-02-01T21:17:23;28.10;;;16.05;;
39050;SDS011;24805;55.852;37.644;2023-02-01T21:22:29;29.40;;;15.98;;
39050;SDS011;24805;55.852;37.644;2023-02-01T21:27:31;30.13;;;15.75;;
39050;SDS011;24805;55.852;37.644;2023-02-01T21:32:33;30.17;;;15.73;;
39050;SDS011;24805;55.852;37.644;2023-02-01T21:37:35;27.33;;;15.25;;
39050;SDS011;24805;55.852;37.644;2023-02-01T21:42:37;30.40;;;15.55;;
39050;SDS011;24805;55.852;37.644;2023-02-01T21:47:41;30.58;;;16.25;;
39050;SDS011;24805;55.852;37.644;2023-02-01T21:52:43;32.65;;;16.05;;
39050;SDS011;24805;55.852;37.644;2023-02-01T21:57:45;30.02;;;15.63;;
39050;SDS011;24805;55.852;37.644;2023-02-01T22:02:47;26.92;;;16.13;;
39050;SDS011;24805;55.852;37.644;2023-02-01T22:07:50;28.85;;;15.40;;
39050;SDS011;24805;55.852;37.644;2023-02-01T22:12:52;28.38;;;16.08;;
39050;SDS011;24805;55.852;37.644;2023-02-01T22:17:54;30.70;;;15.77;;
39050;SDS011;24805;55.852;37.644;2023-02-01T22:22:57;31.65;;;15.57;;
39050;SDS011;24805;55.852;37.644;2023-02-01T22:27:59;29.13;;;15.50;;
39050;SDS011;24805;55.852;37.644;2023-02-01T22:38:22;31.92;;;15.32;;
39050;SDS011;24805;55.852;37.644;2023-02-01T22:43:26;30.48;;;15.20;;
39050;SDS011;24805;55.852;37.644;2023-02-01T22:48:29;30.33;;;16.17;;
39050;SDS011;24805;55.852;37.644;2023-02-01T22:53:32;27.58;;;15.82;;
39050;SDS011;24805;55.852;37.644;2023-02-01T22:58:34;28.67;;;14.55;;
39050;SDS011;24805;55.852;37.644;2023-02-01T23:03:37;28.63;;;15.65;;
39050;SDS011;24805;55.852;37.644;2023-02-01T23:08:39;26.65;;;16.15;;
39050;SDS011;24805;55.852;37.644;2023-02-01T23:13:42;28.02;;;15.43;;
39050;SDS011;24805;55.852;37.644;2023-02-01T23:18:45;29.52;;;16.02;;
39050;SDS011;24805;55.852;37.644;2023-02-01T23:23:48;29.00;;;16.00;;
39050;SDS011;24805;55.852;37.644;2023-02-01T23:28:52;28.10;;;16.17;;
39050;SDS011;24805;55.852;37.644;2023-02-01T23:33:56;27.80;;;14.77;;
39050;SDS011;24805;55.852;37.644;2023-02-01T23:39:00;22.98;;;11.95;;
39050;SDS011;24805;55.852;37.644;2023-02-01T23:44:02;19.52;;;9.93;;
39050;SDS011;24805;55.852;37.644;2023-02-01T23:49:05;28.83;;;16.70;;
39050;SDS011;24805;55.852;37.644;2023-02-01T23:54:09;28.77;;;15.35;;
39050;SDS011;24805;55.852;37.644;2023-02-01T23:59:13;25.58;;;14.30;;
